This is the latest recevied weather packets stored in our database for station/object OK2IGL-6. If no packets are shown the sender has not sent any weather packets the latest 1 day(s).
| Time | Temp. | Humidity | Pressure | Rain* | Wind** | Luminosity | Snow |
|---|---|---|---|---|---|---|---|
| 1778052617 | 23.33° C | 58% | 1005 hPa | - | - | - | - |
| 1778052188 | 23.33° C | 58% | 1005 hPa | - | - | - | - |
| 1778050470 | 23.33° C | 62% | 1005 hPa | - | - | - | - |
| 1778049450 | 22.78° C | 62% | 1005 hPa | - | - | - | - |
| 1778049021 | 22.22° C | 63% | 1005 hPa | - | - | - | - |
| 1778048591 | 21.67° C | 64% | 1004 hPa | - | - | - | - |
| 1778048162 | 21.11° C | 65% | 1004 hPa | - | - | - | - |
| 1778047732 | 21.11° C | 66% | 1004 hPa | - | - | - | - |
| 1778047303 | 21.11° C | 66% | 1005 hPa | - | - | - | - |
| 1778046873 | 20° C | 68% | 1004 hPa | - | - | - | - |
| 1778046444 | 18.89° C | 69% | 1005 hPa | - | - | - | - |
| 1778045585 | 16.67° C | 76% | 1005 hPa | - | - | - | - |
| 1778044726 | 13.89° C | 83% | 1005 hPa | - | - | - | - |
| 1778044297 | 13.33° C | 83% | 1004 hPa | - | - | - | - |
| 1778043867 | 13.33° C | 83% | 1005 hPa | - | - | - | - |
| 1778043277 | 13.33° C | 83% | 1005 hPa | - | - | - | - |
| 1778042847 | 13.33° C | 83% | 1004 hPa | - | - | - | - |
| 1778042418 | 13.33° C | 83% | 1004 hPa | - | - | - | - |
| 1778041559 | 12.78° C | 83% | 1004 hPa | - | - | - | - |
| 1778040700 | 12.22° C | 83% | 1004 hPa | - | - | - | - |
| 1778039841 | 12.22° C | 83% | 1004 hPa | - | - | - | - |
| 1778039412 | 12.22° C | 82% | 1004 hPa | - | - | - | - |
| 1778038982 | 12.22° C | 81% | 1004 hPa | - | - | - | - |
| 1778038553 | 12.22° C | 82% | 1004 hPa | - | - | - | - |
| 1778037694 | 12.78° C | 80% | 1004 hPa | - | - | - | - |
* Rain since midnight (hover to see other rain measurements)
** Current wind speed in m/s (hover to see current wind gust speed)